sensor_id;sensor_type;location;lat;lon;timestamp;P1;durP1;ratioP1;P2;durP2;ratioP2
41755;SDS011;27435;48.480;9.258;2024-03-29T00:00:41;2.30;;;0.70;;
41755;SDS011;27435;48.480;9.258;2024-03-29T00:03:09;1.10;;;0.50;;
41755;SDS011;27435;48.480;9.258;2024-03-29T00:05:35;1.20;;;0.40;;
41755;SDS011;27435;48.480;9.258;2024-03-29T00:08:00;1.30;;;0.50;;
41755;SDS011;27435;48.480;9.258;2024-03-29T00:10:26;1.03;;;0.50;;
41755;SDS011;27435;48.480;9.258;2024-03-29T00:12:52;1.23;;;0.40;;
41755;SDS011;27435;48.480;9.258;2024-03-29T00:15:18;2.10;;;0.60;;
41755;SDS011;27435;48.480;9.258;2024-03-29T00:17:43;2.10;;;0.67;;
41755;SDS011;27435;48.480;9.258;2024-03-29T00:20:09;1.93;;;0.50;;
41755;SDS011;27435;48.480;9.258;2024-03-29T00:22:35;3.13;;;0.70;;
41755;SDS011;27435;48.480;9.258;2024-03-29T00:25:00;1.27;;;0.50;;
41755;SDS011;27435;48.480;9.258;2024-03-29T00:27:26;2.70;;;0.57;;
41755;SDS011;27435;48.480;9.258;2024-03-29T00:29:53;2.57;;;0.50;;
41755;SDS011;27435;48.480;9.258;2024-03-29T00:32:22;1.37;;;0.50;;
41755;SDS011;27435;48.480;9.258;2024-03-29T00:34:49;1.40;;;0.50;;
41755;SDS011;27435;48.480;9.258;2024-03-29T00:37:16;2.03;;;0.40;;
41755;SDS011;27435;48.480;9.258;2024-03-29T00:39:42;3.97;;;0.87;;
41755;SDS011;27435;48.480;9.258;2024-03-29T00:42:07;1.23;;;0.40;;
41755;SDS011;27435;48.480;9.258;2024-03-29T00:44:34;1.80;;;0.73;;
41755;SDS011;27435;48.480;9.258;2024-03-29T00:47:02;1.70;;;0.50;;
41755;SDS011;27435;48.480;9.258;2024-03-29T00:49:28;1.90;;;0.50;;
41755;SDS011;27435;48.480;9.258;2024-03-29T00:51:54;0.60;;;0.43;;
41755;SDS011;27435;48.480;9.258;2024-03-29T00:54:20;1.13;;;0.50;;
41755;SDS011;27435;48.480;9.258;2024-03-29T00:56:46;1.53;;;0.40;;
41755;SDS011;27435;48.480;9.258;2024-03-29T00:59:11;1.37;;;0.47;;
41755;SDS011;27435;48.480;9.258;2024-03-29T01:01:37;0.93;;;0.30;;
41755;SDS011;27435;48.480;9.258;2024-03-29T01:04:03;1.03;;;0.40;;
41755;SDS011;27435;48.480;9.258;2024-03-29T01:06:29;1.20;;;0.43;;
41755;SDS011;27435;48.480;9.258;2024-03-29T01:08:54;1.20;;;0.40;;
41755;SDS011;27435;48.480;9.258;2024-03-29T01:11:20;2.30;;;0.50;;
41755;SDS011;27435;48.480;9.258;2024-03-29T01:13:46;1.13;;;0.50;;
41755;SDS011;27435;48.480;9.258;2024-03-29T01:16:11;2.50;;;1.20;;
41755;SDS011;27435;48.480;9.258;2024-03-29T01:18:37;1.07;;;0.50;;
41755;SDS011;27435;48.480;9.258;2024-03-29T01:21:03;0.80;;;0.60;;
41755;SDS011;27435;48.480;9.258;2024-03-29T01:23:29;0.83;;;0.40;;
41755;SDS011;27435;48.480;9.258;2024-03-29T01:25:55;0.97;;;0.50;;
41755;SDS011;27435;48.480;9.258;2024-03-29T01:28:20;1.03;;;0.40;;
41755;SDS011;27435;48.480;9.258;2024-03-29T01:30:55;1.80;;;0.50;;
41755;SDS011;27435;48.480;9.258;2024-03-29T01:33:21;1.60;;;0.68;;
41755;SDS011;27435;48.480;9.258;2024-03-29T01:35:47;1.43;;;0.50;;
41755;SDS011;27435;48.480;9.258;2024-03-29T01:38:14;1.47;;;0.60;;
41755;SDS011;27435;48.480;9.258;2024-03-29T01:40:39;1.17;;;0.40;;
41755;SDS011;27435;48.480;9.258;2024-03-29T01:43:05;1.83;;;0.50;;
41755;SDS011;27435;48.480;9.258;2024-03-29T01:45:32;1.60;;;0.50;;
41755;SDS011;27435;48.480;9.258;2024-03-29T01:48:06;2.60;;;0.60;;
41755;SDS011;27435;48.480;9.258;2024-03-29T01:50:34;1.83;;;0.70;;
41755;SDS011;27435;48.480;9.258;2024-03-29T01:53:01;2.37;;;0.60;;
41755;SDS011;27435;48.480;9.258;2024-03-29T01:55:27;2.67;;;0.60;;
41755;SDS011;27435;48.480;9.258;2024-03-29T01:57:52;4.80;;;0.77;;
41755;SDS011;27435;48.480;9.258;2024-03-29T02:00:18;1.80;;;0.53;;
41755;SDS011;27435;48.480;9.258;2024-03-29T02:02:45;1.00;;;0.40;;
41755;SDS011;27435;48.480;9.258;2024-03-29T02:05:11;1.40;;;0.50;;
41755;SDS011;27435;48.480;9.258;2024-03-29T02:07:37;1.00;;;0.37;;
41755;SDS011;27435;48.480;9.258;2024-03-29T02:10:03;0.80;;;0.33;;
41755;SDS011;27435;48.480;9.258;2024-03-29T02:12:32;1.03;;;0.37;;
41755;SDS011;27435;48.480;9.258;2024-03-29T02:14:58;1.83;;;0.50;;
41755;SDS011;27435;48.480;9.258;2024-03-29T02:17:24;1.70;;;0.43;;
41755;SDS011;27435;48.480;9.258;2024-03-29T02:19:50;1.63;;;0.50;;
41755;SDS011;27435;48.480;9.258;2024-03-29T02:22:15;1.33;;;0.40;;
41755;SDS011;27435;48.480;9.258;2024-03-29T02:24:43;0.63;;;0.30;;
41755;SDS011;27435;48.480;9.258;2024-03-29T02:27:09;0.73;;;0.33;;
41755;SDS011;27435;48.480;9.258;2024-03-29T02:29:35;1.20;;;0.20;;
41755;SDS011;27435;48.480;9.258;2024-03-29T02:32:04;1.57;;;0.40;;
41755;SDS011;27435;48.480;9.258;2024-03-29T02:34:30;1.20;;;0.37;;
41755;SDS011;27435;48.480;9.258;2024-03-29T02:36:56;0.87;;;0.20;;
41755;SDS011;27435;48.480;9.258;2024-03-29T02:39:22;1.57;;;0.40;;
41755;SDS011;27435;48.480;9.258;2024-03-29T02:41:48;1.40;;;0.40;;
41755;SDS011;27435;48.480;9.258;2024-03-29T02:44:13;3.10;;;0.40;;
41755;SDS011;27435;48.480;9.258;2024-03-29T02:46:41;0.70;;;0.30;;
41755;SDS011;27435;48.480;9.258;2024-03-29T02:49:07;1.07;;;0.40;;
41755;SDS011;27435;48.480;9.258;2024-03-29T02:51:33;0.93;;;0.30;;
41755;SDS011;27435;48.480;9.258;2024-03-29T02:53:58;1.13;;;0.30;;
41755;SDS011;27435;48.480;9.258;2024-03-29T02:56:24;0.97;;;0.30;;
41755;SDS011;27435;48.480;9.258;2024-03-29T02:58:50;2.57;;;0.40;;
41755;SDS011;27435;48.480;9.258;2024-03-29T03:01:15;0.60;;;0.20;;
41755;SDS011;27435;48.480;9.258;2024-03-29T03:03:41;0.67;;;0.53;;
41755;SDS011;27435;48.480;9.258;2024-03-29T03:06:06;1.80;;;0.40;;
41755;SDS011;27435;48.480;9.258;2024-03-29T03:08:32;1.47;;;0.40;;
41755;SDS011;27435;48.480;9.258;2024-03-29T03:11:16;0.80;;;0.33;;
41755;SDS011;27435;48.480;9.258;2024-03-29T03:13:42;0.73;;;0.30;;
41755;SDS011;27435;48.480;9.258;2024-03-29T03:16:08;0.47;;;0.40;;
41755;SDS011;27435;48.480;9.258;2024-03-29T03:18:33;2.43;;;0.40;;
41755;SDS011;27435;48.480;9.258;2024-03-29T03:20:59;0.50;;;0.30;;
41755;SDS011;27435;48.480;9.258;2024-03-29T03:23:25;0.80;;;0.40;;
41755;SDS011;27435;48.480;9.258;2024-03-29T03:25:54;0.60;;;0.40;;
41755;SDS011;27435;48.480;9.258;2024-03-29T03:28:20;0.83;;;0.33;;
41755;SDS011;27435;48.480;9.258;2024-03-29T03:30:46;0.70;;;0.23;;
41755;SDS011;27435;48.480;9.258;2024-03-29T03:33:17;2.17;;;0.30;;
41755;SDS011;27435;48.480;9.258;2024-03-29T03:35:43;0.50;;;0.27;;
41755;SDS011;27435;48.480;9.258;2024-03-29T03:38:09;0.80;;;0.40;;
41755;SDS011;27435;48.480;9.258;2024-03-29T03:40:36;0.23;;;0.23;;
41755;SDS011;27435;48.480;9.258;2024-03-29T03:43:02;0.87;;;0.20;;
41755;SDS011;27435;48.480;9.258;2024-03-29T03:45:33;1.17;;;0.33;;
41755;SDS011;27435;48.480;9.258;2024-03-29T03:48:06;0.70;;;0.30;;
41755;SDS011;27435;48.480;9.258;2024-03-29T03:50:33;1.07;;;0.23;;
41755;SDS011;27435;48.480;9.258;2024-03-29T03:52:59;0.73;;;0.23;;
41755;SDS011;27435;48.480;9.258;2024-03-29T03:55:25;0.30;;;0.20;;
41755;SDS011;27435;48.480;9.258;2024-03-29T03:57:50;0.83;;;0.30;;
41755;SDS011;27435;48.480;9.258;2024-03-29T04:00:18;0.90;;;0.30;;
41755;SDS011;27435;48.480;9.258;2024-03-29T04:02:50;0.60;;;0.20;;
41755;SDS011;27435;48.480;9.258;2024-03-29T04:05:17;1.03;;;0.37;;
41755;SDS011;27435;48.480;9.258;2024-03-29T04:07:43;0.77;;;0.30;;
41755;SDS011;27435;48.480;9.258;2024-03-29T04:10:09;3.13;;;0.30;;
41755;SDS011;27435;48.480;9.258;2024-03-29T04:12:35;1.63;;;0.30;;
41755;SDS011;27435;48.480;9.258;2024-03-29T04:15:01;0.90;;;0.30;;
41755;SDS011;27435;48.480;9.258;2024-03-29T04:17:28;0.77;;;0.20;;
41755;SDS011;27435;48.480;9.258;2024-03-29T04:19:55;0.90;;;0.23;;
41755;SDS011;27435;48.480;9.258;2024-03-29T04:22:21;0.50;;;0.30;;
41755;SDS011;27435;48.480;9.258;2024-03-29T04:24:48;2.47;;;0.30;;
41755;SDS011;27435;48.480;9.258;2024-03-29T04:27:13;1.23;;;0.30;;
41755;SDS011;27435;48.480;9.258;2024-03-29T04:29:39;1.73;;;0.30;;
41755;SDS011;27435;48.480;9.258;2024-03-29T04:32:05;0.37;;;0.20;;
41755;SDS011;27435;48.480;9.258;2024-03-29T04:34:31;0.80;;;0.20;;
41755;SDS011;27435;48.480;9.258;2024-03-29T04:36:56;0.60;;;0.23;;
41755;SDS011;27435;48.480;9.258;2024-03-29T04:39:22;0.67;;;0.30;;
41755;SDS011;27435;48.480;9.258;2024-03-29T04:41:48;1.27;;;0.20;;
41755;SDS011;27435;48.480;9.258;2024-03-29T04:44:13;1.13;;;0.30;;
41755;SDS011;27435;48.480;9.258;2024-03-29T04:46:51;0.63;;;0.27;;
41755;SDS011;27435;48.480;9.258;2024-03-29T04:49:22;0.80;;;0.30;;
41755;SDS011;27435;48.480;9.258;2024-03-29T04:51:55;3.27;;;0.40;;
41755;SDS011;27435;48.480;9.258;2024-03-29T04:54:22;0.63;;;0.23;;
41755;SDS011;27435;48.480;9.258;2024-03-29T04:56:51;1.00;;;0.30;;
41755;SDS011;27435;48.480;9.258;2024-03-29T04:59:17;0.83;;;0.37;;
41755;SDS011;27435;48.480;9.258;2024-03-29T05:01:43;0.40;;;0.30;;
41755;SDS011;27435;48.480;9.258;2024-03-29T05:04:09;0.63;;;0.30;;
41755;SDS011;27435;48.480;9.258;2024-03-29T05:06:35;0.40;;;0.20;;
41755;SDS011;27435;48.480;9.258;2024-03-29T05:09:01;1.07;;;0.30;;
41755;SDS011;27435;48.480;9.258;2024-03-29T05:11:27;1.20;;;0.60;;
41755;SDS011;27435;48.480;9.258;2024-03-29T05:13:52;0.60;;;0.30;;
41755;SDS011;27435;48.480;9.258;2024-03-29T05:16:18;1.10;;;0.57;;
41755;SDS011;27435;48.480;9.258;2024-03-29T05:18:43;1.40;;;0.40;;
41755;SDS011;27435;48.480;9.258;2024-03-29T05:21:09;0.33;;;0.20;;
41755;SDS011;27435;48.480;9.258;2024-03-29T05:23:35;0.70;;;0.20;;
41755;SDS011;27435;48.480;9.258;2024-03-29T05:26:00;0.80;;;0.30;;
41755;SDS011;27435;48.480;9.258;2024-03-29T05:28:26;0.87;;;0.40;;
41755;SDS011;27435;48.480;9.258;2024-03-29T05:30:52;1.47;;;0.40;;
41755;SDS011;27435;48.480;9.258;2024-03-29T05:33:18;2.00;;;0.40;;
41755;SDS011;27435;48.480;9.258;2024-03-29T05:35:43;1.47;;;0.40;;
41755;SDS011;27435;48.480;9.258;2024-03-29T05:38:09;1.07;;;0.47;;
41755;SDS011;27435;48.480;9.258;2024-03-29T05:40:35;1.37;;;0.60;;
41755;SDS011;27435;48.480;9.258;2024-03-29T05:43:00;1.30;;;0.30;;
41755;SDS011;27435;48.480;9.258;2024-03-29T05:45:27;0.63;;;0.37;;
41755;SDS011;27435;48.480;9.258;2024-03-29T05:47:57;1.57;;;0.30;;
41755;SDS011;27435;48.480;9.258;2024-03-29T05:50:24;0.70;;;0.30;;
41755;SDS011;27435;48.480;9.258;2024-03-29T05:52:53;1.53;;;0.30;;
41755;SDS011;27435;48.480;9.258;2024-03-29T05:55:19;1.23;;;0.40;;
41755;SDS011;27435;48.480;9.258;2024-03-29T05:57:45;0.73;;;0.30;;
41755;SDS011;27435;48.480;9.258;2024-03-29T06:00:11;0.70;;;0.37;;
41755;SDS011;27435;48.480;9.258;2024-03-29T06:02:41;1.13;;;0.30;;
41755;SDS011;27435;48.480;9.258;2024-03-29T06:05:09;2.43;;;0.40;;
41755;SDS011;27435;48.480;9.258;2024-03-29T06:07:35;0.87;;;0.30;;
41755;SDS011;27435;48.480;9.258;2024-03-29T06:10:01;3.93;;;0.50;;
41755;SDS011;27435;48.480;9.258;2024-03-29T06:12:31;1.20;;;0.27;;
41755;SDS011;27435;48.480;9.258;2024-03-29T06:14:57;0.63;;;0.37;;
41755;SDS011;27435;48.480;9.258;2024-03-29T06:17:41;1.10;;;0.30;;
41755;SDS011;27435;48.480;9.258;2024-03-29T06:20:07;0.77;;;0.30;;
41755;SDS011;27435;48.480;9.258;2024-03-29T06:22:33;0.50;;;0.27;;
41755;SDS011;27435;48.480;9.258;2024-03-29T06:24:58;0.50;;;0.20;;
41755;SDS011;27435;48.480;9.258;2024-03-29T06:27:30;0.83;;;0.20;;
41755;SDS011;27435;48.480;9.258;2024-03-29T06:29:56;1.17;;;0.23;;
41755;SDS011;27435;48.480;9.258;2024-03-29T06:32:22;0.23;;;0.10;;
41755;SDS011;27435;48.480;9.258;2024-03-29T06:34:47;1.13;;;0.40;;
41755;SDS011;27435;48.480;9.258;2024-03-29T06:37:13;1.77;;;1.03;;
41755;SDS011;27435;48.480;9.258;2024-03-29T06:39:39;0.73;;;0.30;;
41755;SDS011;27435;48.480;9.258;2024-03-29T06:42:04;1.23;;;0.30;;
41755;SDS011;27435;48.480;9.258;2024-03-29T06:44:33;0.50;;;0.30;;
41755;SDS011;27435;48.480;9.258;2024-03-29T06:46:59;0.80;;;0.20;;
41755;SDS011;27435;48.480;9.258;2024-03-29T06:49:25;0.37;;;0.20;;
41755;SDS011;27435;48.480;9.258;2024-03-29T06:51:51;0.43;;;0.20;;
41755;SDS011;27435;48.480;9.258;2024-03-29T06:54:18;1.03;;;0.30;;
41755;SDS011;27435;48.480;9.258;2024-03-29T06:56:47;0.97;;;0.30;;
41755;SDS011;27435;48.480;9.258;2024-03-29T06:59:13;0.97;;;0.37;;
41755;SDS011;27435;48.480;9.258;2024-03-29T07:01:39;0.97;;;0.37;;
41755;SDS011;27435;48.480;9.258;2024-03-29T07:04:04;0.73;;;0.20;;
41755;SDS011;27435;48.480;9.258;2024-03-29T07:06:30;0.80;;;0.40;;
41755;SDS011;27435;48.480;9.258;2024-03-29T07:08:56;1.37;;;0.20;;
41755;SDS011;27435;48.480;9.258;2024-03-29T07:11:21;2.90;;;0.40;;
41755;SDS011;27435;48.480;9.258;2024-03-29T07:13:47;1.30;;;0.30;;
41755;SDS011;27435;48.480;9.258;2024-03-29T07:16:12;1.90;;;0.40;;
41755;SDS011;27435;48.480;9.258;2024-03-29T07:18:38;2.93;;;0.57;;
41755;SDS011;27435;48.480;9.258;2024-03-29T07:21:04;0.97;;;0.30;;
41755;SDS011;27435;48.480;9.258;2024-03-29T07:23:29;1.70;;;0.30;;
41755;SDS011;27435;48.480;9.258;2024-03-29T07:26:02;0.80;;;0.40;;
41755;SDS011;27435;48.480;9.258;2024-03-29T07:28:28;1.67;;;0.80;;
41755;SDS011;27435;48.480;9.258;2024-03-29T07:30:55;1.53;;;0.60;;
41755;SDS011;27435;48.480;9.258;2024-03-29T07:33:22;1.43;;;0.50;;
41755;SDS011;27435;48.480;9.258;2024-03-29T07:35:51;1.20;;;0.50;;
41755;SDS011;27435;48.480;9.258;2024-03-29T07:38:20;2.67;;;0.40;;
41755;SDS011;27435;48.480;9.258;2024-03-29T07:40:46;0.93;;;0.40;;
41755;SDS011;27435;48.480;9.258;2024-03-29T07:43:13;1.33;;;0.40;;
41755;SDS011;27435;48.480;9.258;2024-03-29T07:45:39;3.37;;;0.80;;
41755;SDS011;27435;48.480;9.258;2024-03-29T07:48:07;1.07;;;0.30;;
41755;SDS011;27435;48.480;9.258;2024-03-29T07:50:36;2.13;;;0.40;;
41755;SDS011;27435;48.480;9.258;2024-03-29T07:53:02;0.93;;;0.30;;
41755;SDS011;27435;48.480;9.258;2024-03-29T07:55:27;2.10;;;0.30;;
41755;SDS011;27435;48.480;9.258;2024-03-29T07:57:53;1.10;;;0.50;;
41755;SDS011;27435;48.480;9.258;2024-03-29T08:00:19;0.93;;;0.33;;
41755;SDS011;27435;48.480;9.258;2024-03-29T08:02:44;1.20;;;0.60;;
41755;SDS011;27435;48.480;9.258;2024-03-29T08:05:11;1.97;;;0.50;;
41755;SDS011;27435;48.480;9.258;2024-03-29T08:07:36;0.63;;;0.30;;
41755;SDS011;27435;48.480;9.258;2024-03-29T08:10:02;2.17;;;0.30;;
41755;SDS011;27435;48.480;9.258;2024-03-29T08:12:28;0.50;;;0.20;;
41755;SDS011;27435;48.480;9.258;2024-03-29T08:14:53;0.57;;;0.30;;
41755;SDS011;27435;48.480;9.258;2024-03-29T08:17:19;0.87;;;0.40;;
41755;SDS011;27435;48.480;9.258;2024-03-29T08:19:45;2.83;;;0.30;;
41755;SDS011;27435;48.480;9.258;2024-03-29T08:22:10;0.77;;;0.37;;
41755;SDS011;27435;48.480;9.258;2024-03-29T08:24:37;1.27;;;0.27;;
41755;SDS011;27435;48.480;9.258;2024-03-29T08:27:03;3.67;;;0.50;;
41755;SDS011;27435;48.480;9.258;2024-03-29T08:29:28;0.83;;;0.30;;
41755;SDS011;27435;48.480;9.258;2024-03-29T08:31:54;1.97;;;0.57;;
41755;SDS011;27435;48.480;9.258;2024-03-29T08:34:20;0.82;;;0.40;;
41755;SDS011;27435;48.480;9.258;2024-03-29T08:36:45;2.83;;;0.40;;
41755;SDS011;27435;48.480;9.258;2024-03-29T08:39:12;0.93;;;0.28;;
41755;SDS011;27435;48.480;9.258;2024-03-29T08:41:38;0.40;;;0.30;;
41755;SDS011;27435;48.480;9.258;2024-03-29T08:44:04;0.50;;;0.22;;
41755;SDS011;27435;48.480;9.258;2024-03-29T08:46:30;2.38;;;0.57;;
41755;SDS011;27435;48.480;9.258;2024-03-29T08:48:56;1.02;;;0.40;;
41755;SDS011;27435;48.480;9.258;2024-03-29T08:51:22;1.30;;;0.32;;
41755;SDS011;27435;48.480;9.258;2024-03-29T08:53:47;2.70;;;1.10;;
41755;SDS011;27435;48.480;9.258;2024-03-29T08:56:13;2.22;;;1.02;;
41755;SDS011;27435;48.480;9.258;2024-03-29T08:58:40;2.75;;;0.90;;
41755;SDS011;27435;48.480;9.258;2024-03-29T09:01:06;4.30;;;1.13;;
41755;SDS011;27435;48.480;9.258;2024-03-29T09:03:31;3.17;;;0.93;;
41755;SDS011;27435;48.480;9.258;2024-03-29T09:05:57;4.28;;;1.20;;
41755;SDS011;27435;48.480;9.258;2024-03-29T09:08:23;2.63;;;0.90;;
41755;SDS011;27435;48.480;9.258;2024-03-29T09:10:48;3.50;;;1.10;;
41755;SDS011;27435;48.480;9.258;2024-03-29T09:13:17;2.10;;;1.02;;
41755;SDS011;27435;48.480;9.258;2024-03-29T09:15:43;2.92;;;0.80;;
41755;SDS011;27435;48.480;9.258;2024-03-29T09:18:09;3.78;;;1.60;;
41755;SDS011;27435;48.480;9.258;2024-03-29T09:20:36;3.17;;;1.50;;
41755;SDS011;27435;48.480;9.258;2024-03-29T09:23:03;3.08;;;1.63;;
41755;SDS011;27435;48.480;9.258;2024-03-29T09:25:29;4.15;;;2.05;;
41755;SDS011;27435;48.480;9.258;2024-03-29T09:27:55;4.20;;;1.60;;
41755;SDS011;27435;48.480;9.258;2024-03-29T09:30:21;3.15;;;1.63;;
41755;SDS011;27435;48.480;9.258;2024-03-29T09:32:47;4.03;;;1.95;;
41755;SDS011;27435;48.480;9.258;2024-03-29T09:35:15;6.10;;;2.92;;
41755;SDS011;27435;48.480;9.258;2024-03-29T09:37:42;3.30;;;2.00;;
41755;SDS011;27435;48.480;9.258;2024-03-29T09:40:09;5.53;;;2.37;;
41755;SDS011;27435;48.480;9.258;2024-03-29T09:42:35;4.87;;;2.53;;
41755;SDS011;27435;48.480;9.258;2024-03-29T09:45:04;4.03;;;2.03;;
41755;SDS011;27435;48.480;9.258;2024-03-29T09:47:31;4.23;;;1.70;;
41755;SDS011;27435;48.480;9.258;2024-03-29T09:50:06;4.33;;;2.33;;
41755;SDS011;27435;48.480;9.258;2024-03-29T09:52:33;3.35;;;1.90;;
41755;SDS011;27435;48.480;9.258;2024-03-29T09:55:00;4.28;;;1.80;;
41755;SDS011;27435;48.480;9.258;2024-03-29T09:57:26;4.85;;;1.73;;
41755;SDS011;27435;48.480;9.258;2024-03-29T09:59:55;4.95;;;1.70;;
41755;SDS011;27435;48.480;9.258;2024-03-29T10:02:21;3.33;;;1.45;;
41755;SDS011;27435;48.480;9.258;2024-03-29T10:04:53;5.05;;;1.50;;
41755;SDS011;27435;48.480;9.258;2024-03-29T10:07:22;4.82;;;1.42;;
41755;SDS011;27435;48.480;9.258;2024-03-29T10:09:49;5.32;;;1.50;;
41755;SDS011;27435;48.480;9.258;2024-03-29T10:12:16;3.35;;;1.45;;
41755;SDS011;27435;48.480;9.258;2024-03-29T10:14:43;4.38;;;1.73;;
41755;SDS011;27435;48.480;9.258;2024-03-29T10:17:17;2.80;;;1.27;;
41755;SDS011;27435;48.480;9.258;2024-03-29T10:19:43;3.72;;;1.60;;
41755;SDS011;27435;48.480;9.258;2024-03-29T10:22:09;5.53;;;2.88;;
41755;SDS011;27435;48.480;9.258;2024-03-29T10:24:35;5.90;;;2.58;;
41755;SDS011;27435;48.480;9.258;2024-03-29T10:27:02;5.93;;;2.08;;
41755;SDS011;27435;48.480;9.258;2024-03-29T10:29:28;3.97;;;2.17;;
41755;SDS011;27435;48.480;9.258;2024-03-29T10:31:57;2.90;;;1.38;;
41755;SDS011;27435;48.480;9.258;2024-03-29T10:34:26;3.92;;;1.80;;
41755;SDS011;27435;48.480;9.258;2024-03-29T10:36:54;3.17;;;1.52;;
41755;SDS011;27435;48.480;9.258;2024-03-29T10:39:20;3.58;;;2.05;;
41755;SDS011;27435;48.480;9.258;2024-03-29T10:41:46;4.22;;;2.10;;
41755;SDS011;27435;48.480;9.258;2024-03-29T10:44:13;3.05;;;1.55;;
41755;SDS011;27435;48.480;9.258;2024-03-29T10:46:39;4.90;;;2.42;;
41755;SDS011;27435;48.480;9.258;2024-03-29T10:49:07;5.85;;;1.85;;
41755;SDS011;27435;48.480;9.258;2024-03-29T10:51:39;5.13;;;2.60;;
41755;SDS011;27435;48.480;9.258;2024-03-29T10:54:06;4.00;;;2.22;;
41755;SDS011;27435;48.480;9.258;2024-03-29T10:56:35;5.55;;;2.33;;
41755;SDS011;27435;48.480;9.258;2024-03-29T10:59:35;3.72;;;1.83;;
41755;SDS011;27435;48.480;9.258;2024-03-29T11:01:52;4.40;;;1.80;;
41755;SDS011;27435;48.480;9.258;2024-03-29T11:04:33;6.93;;;1.80;;
41755;SDS011;27435;48.480;9.258;2024-03-29T11:07:06;4.82;;;1.67;;
41755;SDS011;27435;48.480;9.258;2024-03-29T11:09:37;3.05;;;1.60;;
41755;SDS011;27435;48.480;9.258;2024-03-29T11:12:04;4.53;;;1.65;;
41755;SDS011;27435;48.480;9.258;2024-03-29T11:14:35;3.40;;;1.00;;
41755;SDS011;27435;48.480;9.258;2024-03-29T11:17:07;4.63;;;1.27;;
41755;SDS011;27435;48.480;9.258;2024-03-29T11:19:34;2.45;;;0.82;;
41755;SDS011;27435;48.480;9.258;2024-03-29T11:22:00;2.78;;;0.77;;
41755;SDS011;27435;48.480;9.258;2024-03-29T11:24:27;4.00;;;1.00;;
41755;SDS011;27435;48.480;9.258;2024-03-29T11:26:54;3.00;;;1.05;;
41755;SDS011;27435;48.480;9.258;2024-03-29T11:29:20;1.88;;;0.75;;
41755;SDS011;27435;48.480;9.258;2024-03-29T11:31:47;4.25;;;0.90;;
41755;SDS011;27435;48.480;9.258;2024-03-29T11:34:18;2.00;;;0.80;;
41755;SDS011;27435;48.480;9.258;2024-03-29T11:36:45;4.13;;;1.35;;
41755;SDS011;27435;48.480;9.258;2024-03-29T11:39:19;2.53;;;0.90;;
41755;SDS011;27435;48.480;9.258;2024-03-29T11:41:48;3.90;;;1.17;;
41755;SDS011;27435;48.480;9.258;2024-03-29T11:44:14;1.73;;;1.20;;
41755;SDS011;27435;48.480;9.258;2024-03-29T11:46:40;2.47;;;1.20;;
41755;SDS011;27435;48.480;9.258;2024-03-29T11:49:07;3.05;;;1.20;;
41755;SDS011;27435;48.480;9.258;2024-03-29T11:51:32;4.50;;;1.20;;
41755;SDS011;27435;48.480;9.258;2024-03-29T11:53:59;5.57;;;1.35;;
41755;SDS011;27435;48.480;9.258;2024-03-29T11:56:25;2.85;;;1.20;;
41755;SDS011;27435;48.480;9.258;2024-03-29T11:58:51;2.00;;;1.10;;
41755;SDS011;27435;48.480;9.258;2024-03-29T12:01:18;4.72;;;1.13;;
41755;SDS011;27435;48.480;9.258;2024-03-29T12:03:43;3.25;;;1.10;;
41755;SDS011;27435;48.480;9.258;2024-03-29T12:06:09;3.95;;;1.13;;
41755;SDS011;27435;48.480;9.258;2024-03-29T12:08:37;2.35;;;1.10;;
41755;SDS011;27435;48.480;9.258;2024-03-29T12:11:04;4.00;;;1.95;;
41755;SDS011;27435;48.480;9.258;2024-03-29T12:13:30;3.13;;;1.33;;
41755;SDS011;27435;48.480;9.258;2024-03-29T12:15:57;3.25;;;1.40;;
41755;SDS011;27435;48.480;9.258;2024-03-29T12:18:24;5.10;;;1.15;;
41755;SDS011;27435;48.480;9.258;2024-03-29T12:20:51;2.47;;;1.13;;
41755;SDS011;27435;48.480;9.258;2024-03-29T12:23:20;3.72;;;0.80;;
41755;SDS011;27435;48.480;9.258;2024-03-29T12:25:47;2.22;;;1.00;;
41755;SDS011;27435;48.480;9.258;2024-03-29T12:28:14;2.83;;;1.10;;
41755;SDS011;27435;48.480;9.258;2024-03-29T12:30:45;5.38;;;1.15;;
41755;SDS011;27435;48.480;9.258;2024-03-29T12:33:12;2.40;;;1.10;;
41755;SDS011;27435;48.480;9.258;2024-03-29T12:35:41;3.00;;;0.90;;
41755;SDS011;27435;48.480;9.258;2024-03-29T12:38:10;3.17;;;1.60;;
41755;SDS011;27435;48.480;9.258;2024-03-29T12:40:37;2.63;;;1.00;;
41755;SDS011;27435;48.480;9.258;2024-03-29T12:43:05;7.13;;;1.25;;
41755;SDS011;27435;48.480;9.258;2024-03-29T12:45:33;1.80;;;0.90;;
41755;SDS011;27435;48.480;9.258;2024-03-29T12:47:59;2.80;;;1.08;;
41755;SDS011;27435;48.480;9.258;2024-03-29T12:50:26;1.70;;;0.73;;
41755;SDS011;27435;48.480;9.258;2024-03-29T12:53:00;2.60;;;1.00;;
41755;SDS011;27435;48.480;9.258;2024-03-29T12:55:30;2.73;;;1.10;;
41755;SDS011;27435;48.480;9.258;2024-03-29T12:57:59;4.75;;;2.20;;
41755;SDS011;27435;48.480;9.258;2024-03-29T13:00:25;2.22;;;0.93;;
41755;SDS011;27435;48.480;9.258;2024-03-29T13:02:52;1.77;;;1.17;;
41755;SDS011;27435;48.480;9.258;2024-03-29T13:05:18;1.95;;;0.90;;
41755;SDS011;27435;48.480;9.258;2024-03-29T13:07:45;3.45;;;0.82;;
41755;SDS011;27435;48.480;9.258;2024-03-29T13:10:11;3.97;;;2.08;;
41755;SDS011;27435;48.480;9.258;2024-03-29T13:12:49;2.47;;;1.00;;
41755;SDS011;27435;48.480;9.258;2024-03-29T13:15:23;2.63;;;0.77;;
41755;SDS011;27435;48.480;9.258;2024-03-29T13:17:51;2.40;;;0.75;;
41755;SDS011;27435;48.480;9.258;2024-03-29T13:20:18;3.25;;;0.80;;
41755;SDS011;27435;48.480;9.258;2024-03-29T13:22:44;2.20;;;0.93;;
41755;SDS011;27435;48.480;9.258;2024-03-29T13:25:14;2.50;;;0.90;;
41755;SDS011;27435;48.480;9.258;2024-03-29T13:27:43;2.95;;;0.70;;
41755;SDS011;27435;48.480;9.258;2024-03-29T13:30:12;5.43;;;0.70;;
41755;SDS011;27435;48.480;9.258;2024-03-29T13:32:39;4.38;;;0.90;;
41755;SDS011;27435;48.480;9.258;2024-03-29T13:35:06;3.10;;;0.90;;
41755;SDS011;27435;48.480;9.258;2024-03-29T13:37:37;3.53;;;0.60;;
41755;SDS011;27435;48.480;9.258;2024-03-29T13:40:04;1.65;;;0.70;;
41755;SDS011;27435;48.480;9.258;2024-03-29T13:42:34;1.75;;;0.73;;
41755;SDS011;27435;48.480;9.258;2024-03-29T13:45:00;2.22;;;0.70;;
41755;SDS011;27435;48.480;9.258;2024-03-29T13:47:26;3.20;;;0.90;;
41755;SDS011;27435;48.480;9.258;2024-03-29T13:49:52;1.83;;;0.60;;
41755;SDS011;27435;48.480;9.258;2024-03-29T13:52:19;2.13;;;0.80;;
41755;SDS011;27435;48.480;9.258;2024-03-29T13:54:45;2.15;;;1.00;;
41755;SDS011;27435;48.480;9.258;2024-03-29T13:57:12;2.47;;;0.82;;
41755;SDS011;27435;48.480;9.258;2024-03-29T13:59:38;1.95;;;0.75;;
41755;SDS011;27435;48.480;9.258;2024-03-29T14:02:04;1.70;;;0.70;;
41755;SDS011;27435;48.480;9.258;2024-03-29T14:04:30;2.05;;;0.80;;
41755;SDS011;27435;48.480;9.258;2024-03-29T14:06:56;3.40;;;1.17;;
41755;SDS011;27435;48.480;9.258;2024-03-29T14:09:21;3.75;;;0.88;;
41755;SDS011;27435;48.480;9.258;2024-03-29T14:11:47;2.20;;;0.93;;
41755;SDS011;27435;48.480;9.258;2024-03-29T14:14:13;5.95;;;1.00;;
41755;SDS011;27435;48.480;9.258;2024-03-29T14:16:38;2.67;;;1.00;;
41755;SDS011;27435;48.480;9.258;2024-03-29T14:19:04;1.90;;;0.80;;
41755;SDS011;27435;48.480;9.258;2024-03-29T14:21:30;1.52;;;0.70;;
41755;SDS011;27435;48.480;9.258;2024-03-29T14:23:57;1.80;;;0.75;;
41755;SDS011;27435;48.480;9.258;2024-03-29T14:26:23;1.80;;;0.77;;
41755;SDS011;27435;48.480;9.258;2024-03-29T14:28:48;2.30;;;0.85;;
41755;SDS011;27435;48.480;9.258;2024-03-29T14:31:14;2.75;;;0.85;;
41755;SDS011;27435;48.480;9.258;2024-03-29T14:33:40;3.13;;;0.82;;
41755;SDS011;27435;48.480;9.258;2024-03-29T14:36:06;3.80;;;0.80;;
41755;SDS011;27435;48.480;9.258;2024-03-29T14:38:31;2.20;;;0.90;;
41755;SDS011;27435;48.480;9.258;2024-03-29T14:40:57;1.50;;;0.70;;
41755;SDS011;27435;48.480;9.258;2024-03-29T14:43:23;2.13;;;0.80;;
41755;SDS011;27435;48.480;9.258;2024-03-29T14:45:48;1.60;;;0.70;;